sensor_id;sensor_type;location;lat;lon;timestamp;P1;durP1;ratioP1;P2;durP2;ratioP2
43160;SDS011;40968;52.342;5.528;2023-03-25T00:02:23;19.70;;;3.30;;
43160;SDS011;40968;52.342;5.528;2023-03-25T00:04:51;14.10;;;2.45;;
43160;SDS011;40968;52.342;5.528;2023-03-25T00:07:20;11.00;;;2.90;;
43160;SDS011;40968;52.342;5.528;2023-03-25T00:09:47;13.23;;;2.60;;
43160;SDS011;40968;52.342;5.528;2023-03-25T00:12:14;14.63;;;3.17;;
43160;SDS011;40968;52.342;5.528;2023-03-25T00:14:42;16.13;;;2.65;;
43160;SDS011;40968;52.342;5.528;2023-03-25T00:17:18;13.68;;;3.05;;
43160;SDS011;40968;52.342;5.528;2023-03-25T00:19:45;16.17;;;3.28;;
43160;SDS011;40968;52.342;5.528;2023-03-25T00:22:14;12.23;;;2.97;;
43160;SDS011;40968;52.342;5.528;2023-03-25T00:24:43;17.35;;;3.17;;
43160;SDS011;40968;52.342;5.528;2023-03-25T00:27:09;16.23;;;3.63;;
43160;SDS011;40968;52.342;5.528;2023-03-25T00:29:38;18.02;;;3.00;;
43160;SDS011;40968;52.342;5.528;2023-03-25T00:32:05;23.45;;;4.45;;
43160;SDS011;40968;52.342;5.528;2023-03-25T00:34:31;13.52;;;3.05;;
43160;SDS011;40968;52.342;5.528;2023-03-25T00:36:59;21.38;;;3.85;;
43160;SDS011;40968;52.342;5.528;2023-03-25T00:39:26;24.73;;;3.78;;
43160;SDS011;40968;52.342;5.528;2023-03-25T00:41:54;17.38;;;3.30;;
43160;SDS011;40968;52.342;5.528;2023-03-25T00:44:21;15.50;;;3.90;;
43160;SDS011;40968;52.342;5.528;2023-03-25T00:46:47;18.00;;;3.28;;
43160;SDS011;40968;52.342;5.528;2023-03-25T00:49:14;36.60;;;4.43;;
43160;SDS011;40968;52.342;5.528;2023-03-25T00:51:41;23.42;;;4.93;;
43160;SDS011;40968;52.342;5.528;2023-03-25T00:54:07;18.35;;;3.55;;
43160;SDS011;40968;52.342;5.528;2023-03-25T00:56:35;15.20;;;3.38;;
43160;SDS011;40968;52.342;5.528;2023-03-25T00:59:04;21.08;;;3.97;;
43160;SDS011;40968;52.342;5.528;2023-03-25T01:01:30;17.42;;;4.03;;
43160;SDS011;40968;52.342;5.528;2023-03-25T01:03:57;16.40;;;3.40;;
43160;SDS011;40968;52.342;5.528;2023-03-25T01:06:25;21.70;;;4.05;;
43160;SDS011;40968;52.342;5.528;2023-03-25T01:08:54;14.35;;;3.58;;
43160;SDS011;40968;52.342;5.528;2023-03-25T01:11:22;22.27;;;3.55;;
43160;SDS011;40968;52.342;5.528;2023-03-25T01:13:50;17.40;;;4.25;;
43160;SDS011;40968;52.342;5.528;2023-03-25T01:16:18;14.43;;;3.72;;
43160;SDS011;40968;52.342;5.528;2023-03-25T01:18:45;29.45;;;4.05;;
43160;SDS011;40968;52.342;5.528;2023-03-25T01:21:12;17.05;;;3.60;;
43160;SDS011;40968;52.342;5.528;2023-03-25T01:23:39;28.55;;;4.18;;
43160;SDS011;40968;52.342;5.528;2023-03-25T01:26:05;19.75;;;3.53;;
43160;SDS011;40968;52.342;5.528;2023-03-25T01:28:33;33.67;;;5.63;;
43160;SDS011;40968;52.342;5.528;2023-03-25T01:31:00;15.38;;;3.30;;
43160;SDS011;40968;52.342;5.528;2023-03-25T01:33:29;19.48;;;3.80;;
43160;SDS011;40968;52.342;5.528;2023-03-25T01:35:56;13.85;;;4.03;;
43160;SDS011;40968;52.342;5.528;2023-03-25T01:38:23;19.17;;;3.90;;
43160;SDS011;40968;52.342;5.528;2023-03-25T01:40:51;28.17;;;3.95;;
43160;SDS011;40968;52.342;5.528;2023-03-25T01:43:19;13.60;;;3.85;;
43160;SDS011;40968;52.342;5.528;2023-03-25T01:45:46;21.48;;;3.92;;
43160;SDS011;40968;52.342;5.528;2023-03-25T01:48:14;15.60;;;3.78;;
43160;SDS011;40968;52.342;5.528;2023-03-25T01:53:13;25.73;;;4.05;;
43160;SDS011;40968;52.342;5.528;2023-03-25T01:55:41;15.93;;;3.78;;
43160;SDS011;40968;52.342;5.528;2023-03-25T01:58:10;12.07;;;3.38;;
43160;SDS011;40968;52.342;5.528;2023-03-25T02:00:39;24.08;;;4.57;;
43160;SDS011;40968;52.342;5.528;2023-03-25T02:03:09;21.07;;;4.53;;
43160;SDS011;40968;52.342;5.528;2023-03-25T02:05:38;20.85;;;3.95;;
43160;SDS011;40968;52.342;5.528;2023-03-25T02:08:12;19.13;;;3.80;;
43160;SDS011;40968;52.342;5.528;2023-03-25T02:10:41;26.17;;;4.22;;
43160;SDS011;40968;52.342;5.528;2023-03-25T02:13:10;20.02;;;3.72;;
43160;SDS011;40968;52.342;5.528;2023-03-25T02:15:41;22.67;;;3.90;;
43160;SDS011;40968;52.342;5.528;2023-03-25T02:18:28;16.85;;;3.70;;
43160;SDS011;40968;52.342;5.528;2023-03-25T02:27:17;25.10;;;4.68;;
43160;SDS011;40968;52.342;5.528;2023-03-25T02:33:02;22.23;;;3.67;;
43160;SDS011;40968;52.342;5.528;2023-03-25T02:35:52;25.20;;;3.80;;
43160;SDS011;40968;52.342;5.528;2023-03-25T02:38:37;20.33;;;3.58;;
43160;SDS011;40968;52.342;5.528;2023-03-25T02:41:10;16.38;;;3.85;;
43160;SDS011;40968;52.342;5.528;2023-03-25T02:43:43;13.55;;;3.55;;
43160;SDS011;40968;52.342;5.528;2023-03-25T02:46:15;14.52;;;4.75;;
43160;SDS011;40968;52.342;5.528;2023-03-25T02:48:44;14.07;;;3.95;;
43160;SDS011;40968;52.342;5.528;2023-03-25T02:51:19;21.67;;;4.55;;
43160;SDS011;40968;52.342;5.528;2023-03-25T02:53:52;22.30;;;5.05;;
43160;SDS011;40968;52.342;5.528;2023-03-25T02:56:22;18.63;;;4.47;;
43160;SDS011;40968;52.342;5.528;2023-03-25T02:58:51;26.98;;;4.82;;
43160;SDS011;40968;52.342;5.528;2023-03-25T03:01:20;20.17;;;4.50;;
43160;SDS011;40968;52.342;5.528;2023-03-25T03:03:51;22.70;;;4.30;;
43160;SDS011;40968;52.342;5.528;2023-03-25T03:06:17;21.33;;;4.70;;
43160;SDS011;40968;52.342;5.528;2023-03-25T03:08:49;19.25;;;4.25;;
43160;SDS011;40968;52.342;5.528;2023-03-25T03:11:28;20.25;;;4.65;;
43160;SDS011;40968;52.342;5.528;2023-03-25T03:14:01;18.90;;;5.18;;
43160;SDS011;40968;52.342;5.528;2023-03-25T03:16:39;22.05;;;4.75;;
43160;SDS011;40968;52.342;5.528;2023-03-25T03:19:17;20.15;;;4.40;;
43160;SDS011;40968;52.342;5.528;2023-03-25T03:21:56;19.17;;;4.25;;
43160;SDS011;40968;52.342;5.528;2023-03-25T03:24:28;18.40;;;4.25;;
43160;SDS011;40968;52.342;5.528;2023-03-25T03:26:58;28.55;;;4.60;;
43160;SDS011;40968;52.342;5.528;2023-03-25T03:29:35;27.30;;;5.50;;
43160;SDS011;40968;52.342;5.528;2023-03-25T03:32:05;18.17;;;4.35;;
43160;SDS011;40968;52.342;5.528;2023-03-25T03:37:09;20.85;;;4.32;;
43160;SDS011;40968;52.342;5.528;2023-03-25T03:39:40;20.00;;;5.65;;
43160;SDS011;40968;52.342;5.528;2023-03-25T03:42:09;18.67;;;4.47;;
43160;SDS011;40968;52.342;5.528;2023-03-25T03:44:43;17.52;;;4.20;;
43160;SDS011;40968;52.342;5.528;2023-03-25T03:47:15;26.08;;;5.97;;
43160;SDS011;40968;52.342;5.528;2023-03-25T03:49:49;21.40;;;4.53;;
43160;SDS011;40968;52.342;5.528;2023-03-25T03:52:21;22.92;;;5.15;;
43160;SDS011;40968;52.342;5.528;2023-03-25T03:54:55;18.85;;;4.35;;
43160;SDS011;40968;52.342;5.528;2023-03-25T03:57:25;30.17;;;5.15;;
43160;SDS011;40968;52.342;5.528;2023-03-25T04:02:29;18.38;;;5.35;;
43160;SDS011;40968;52.342;5.528;2023-03-25T04:05:03;18.88;;;4.63;;
43160;SDS011;40968;52.342;5.528;2023-03-25T04:07:31;22.33;;;5.22;;
43160;SDS011;40968;52.342;5.528;2023-03-25T04:10:08;29.30;;;5.00;;
43160;SDS011;40968;52.342;5.528;2023-03-25T04:12:40;30.67;;;4.90;;
43160;SDS011;40968;52.342;5.528;2023-03-25T04:15:09;18.77;;;4.30;;
43160;SDS011;40968;52.342;5.528;2023-03-25T04:17:37;30.60;;;5.53;;
43160;SDS011;40968;52.342;5.528;2023-03-25T04:20:04;18.05;;;4.45;;
43160;SDS011;40968;52.342;5.528;2023-03-25T04:22:33;33.60;;;5.32;;
43160;SDS011;40968;52.342;5.528;2023-03-25T04:25:02;30.60;;;5.75;;
43160;SDS011;40968;52.342;5.528;2023-03-25T04:27:31;24.80;;;5.18;;
43160;SDS011;40968;52.342;5.528;2023-03-25T04:30:01;21.48;;;4.45;;
43160;SDS011;40968;52.342;5.528;2023-03-25T04:32:29;31.95;;;4.72;;
43160;SDS011;40968;52.342;5.528;2023-03-25T04:34:55;14.60;;;4.38;;
43160;SDS011;40968;52.342;5.528;2023-03-25T04:37:22;19.65;;;5.57;;
43160;SDS011;40968;52.342;5.528;2023-03-25T04:39:49;12.70;;;3.70;;
43160;SDS011;40968;52.342;5.528;2023-03-25T04:42:18;12.60;;;3.20;;
43160;SDS011;40968;52.342;5.528;2023-03-25T04:44:46;21.35;;;4.32;;
43160;SDS011;40968;52.342;5.528;2023-03-25T04:47:12;17.77;;;4.72;;
43160;SDS011;40968;52.342;5.528;2023-03-25T04:49:40;18.70;;;3.90;;
43160;SDS011;40968;52.342;5.528;2023-03-25T04:52:09;15.70;;;3.55;;
43160;SDS011;40968;52.342;5.528;2023-03-25T04:54:36;14.90;;;3.38;;
43160;SDS011;40968;52.342;5.528;2023-03-25T04:57:04;11.55;;;3.53;;
43160;SDS011;40968;52.342;5.528;2023-03-25T04:59:32;11.25;;;3.08;;
43160;SDS011;40968;52.342;5.528;2023-03-25T05:02:01;19.15;;;3.30;;
43160;SDS011;40968;52.342;5.528;2023-03-25T05:04:30;24.23;;;3.60;;
43160;SDS011;40968;52.342;5.528;2023-03-25T05:06:56;16.08;;;3.03;;
43160;SDS011;40968;52.342;5.528;2023-03-25T05:09:23;11.18;;;3.05;;
43160;SDS011;40968;52.342;5.528;2023-03-25T05:11:50;23.75;;;3.67;;
43160;SDS011;40968;52.342;5.528;2023-03-25T05:14:20;19.85;;;3.60;;
43160;SDS011;40968;52.342;5.528;2023-03-25T05:16:47;13.73;;;3.15;;
43160;SDS011;40968;52.342;5.528;2023-03-25T05:19:16;15.93;;;3.72;;
43160;SDS011;40968;52.342;5.528;2023-03-25T05:21:44;14.48;;;3.28;;
43160;SDS011;40968;52.342;5.528;2023-03-25T05:24:11;12.30;;;3.72;;
43160;SDS011;40968;52.342;5.528;2023-03-25T05:26:38;26.25;;;4.85;;
43160;SDS011;40968;52.342;5.528;2023-03-25T05:29:07;33.50;;;4.90;;
43160;SDS011;40968;52.342;5.528;2023-03-25T05:31:37;25.98;;;5.13;;
43160;SDS011;40968;52.342;5.528;2023-03-25T05:34:04;25.92;;;4.85;;
43160;SDS011;40968;52.342;5.528;2023-03-25T05:36:34;32.92;;;5.43;;
43160;SDS011;40968;52.342;5.528;2023-03-25T05:39:01;20.35;;;5.45;;
43160;SDS011;40968;52.342;5.528;2023-03-25T05:41:28;30.52;;;5.70;;
43160;SDS011;40968;52.342;5.528;2023-03-25T05:43:57;28.08;;;5.35;;
43160;SDS011;40968;52.342;5.528;2023-03-25T05:46:24;35.38;;;5.90;;
43160;SDS011;40968;52.342;5.528;2023-03-25T05:48:52;28.67;;;5.70;;
43160;SDS011;40968;52.342;5.528;2023-03-25T05:51:19;23.83;;;5.60;;
43160;SDS011;40968;52.342;5.528;2023-03-25T05:53:48;30.90;;;5.75;;
43160;SDS011;40968;52.342;5.528;2023-03-25T05:56:15;37.70;;;5.60;;
43160;SDS011;40968;52.342;5.528;2023-03-25T05:58:42;31.73;;;6.15;;
43160;SDS011;40968;52.342;5.528;2023-03-25T06:01:08;25.30;;;6.57;;
43160;SDS011;40968;52.342;5.528;2023-03-25T06:03:38;29.08;;;5.78;;
43160;SDS011;40968;52.342;5.528;2023-03-25T06:06:06;27.58;;;6.47;;
43160;SDS011;40968;52.342;5.528;2023-03-25T06:08:38;25.67;;;5.43;;
43160;SDS011;40968;52.342;5.528;2023-03-25T06:11:06;23.67;;;5.47;;
43160;SDS011;40968;52.342;5.528;2023-03-25T06:13:33;32.85;;;5.47;;
43160;SDS011;40968;52.342;5.528;2023-03-25T06:16:02;38.70;;;6.00;;
43160;SDS011;40968;52.342;5.528;2023-03-25T06:18:29;33.85;;;5.78;;
43160;SDS011;40968;52.342;5.528;2023-03-25T06:20:57;26.15;;;5.72;;
43160;SDS011;40968;52.342;5.528;2023-03-25T06:23:24;22.38;;;5.13;;
43160;SDS011;40968;52.342;5.528;2023-03-25T06:25:51;29.00;;;5.43;;
43160;SDS011;40968;52.342;5.528;2023-03-25T06:28:20;26.25;;;5.43;;
43160;SDS011;40968;52.342;5.528;2023-03-25T06:30:47;24.27;;;5.70;;
43160;SDS011;40968;52.342;5.528;2023-03-25T06:33:14;22.50;;;5.95;;
43160;SDS011;40968;52.342;5.528;2023-03-25T06:35:45;30.67;;;5.30;;
43160;SDS011;40968;52.342;5.528;2023-03-25T06:38:13;37.88;;;5.72;;
43160;SDS011;40968;52.342;5.528;2023-03-25T06:40:40;22.27;;;5.45;;
43160;SDS011;40968;52.342;5.528;2023-03-25T06:43:07;27.15;;;5.68;;
43160;SDS011;40968;52.342;5.528;2023-03-25T06:45:35;44.42;;;5.75;;
43160;SDS011;40968;52.342;5.528;2023-03-25T06:48:01;25.38;;;4.88;;
43160;SDS011;40968;52.342;5.528;2023-03-25T06:50:29;20.75;;;5.68;;
43160;SDS011;40968;52.342;5.528;2023-03-25T06:52:56;40.13;;;6.47;;
43160;SDS011;40968;52.342;5.528;2023-03-25T06:55:23;30.48;;;6.05;;
43160;SDS011;40968;52.342;5.528;2023-03-25T06:57:53;25.88;;;5.82;;
43160;SDS011;40968;52.342;5.528;2023-03-25T07:00:20;19.67;;;4.75;;
43160;SDS011;40968;52.342;5.528;2023-03-25T07:02:50;24.77;;;4.80;;
43160;SDS011;40968;52.342;5.528;2023-03-25T07:05:16;19.40;;;5.00;;
43160;SDS011;40968;52.342;5.528;2023-03-25T07:07:43;19.38;;;4.65;;
43160;SDS011;40968;52.342;5.528;2023-03-25T07:10:10;20.95;;;4.97;;
43160;SDS011;40968;52.342;5.528;2023-03-25T07:12:37;28.63;;;5.68;;
43160;SDS011;40968;52.342;5.528;2023-03-25T07:15:05;29.30;;;5.47;;
43160;SDS011;40968;52.342;5.528;2023-03-25T07:17:33;27.50;;;5.80;;
43160;SDS011;40968;52.342;5.528;2023-03-25T07:20:01;36.58;;;5.45;;
43160;SDS011;40968;52.342;5.528;2023-03-25T07:22:28;28.90;;;5.75;;
43160;SDS011;40968;52.342;5.528;2023-03-25T07:24:55;44.10;;;7.03;;
43160;SDS011;40968;52.342;5.528;2023-03-25T07:27:22;34.97;;;6.03;;
43160;SDS011;40968;52.342;5.528;2023-03-25T07:29:50;25.88;;;4.70;;
43160;SDS011;40968;52.342;5.528;2023-03-25T07:32:16;31.70;;;6.32;;
43160;SDS011;40968;52.342;5.528;2023-03-25T07:34:43;39.25;;;6.13;;
43160;SDS011;40968;52.342;5.528;2023-03-25T07:37:11;28.38;;;5.50;;
43160;SDS011;40968;52.342;5.528;2023-03-25T07:39:38;26.02;;;5.93;;
43160;SDS011;40968;52.342;5.528;2023-03-25T07:42:05;21.80;;;5.28;;
43160;SDS011;40968;52.342;5.528;2023-03-25T07:44:32;43.10;;;6.78;;
43160;SDS011;40968;52.342;5.528;2023-03-25T07:46:58;40.83;;;6.20;;
43160;SDS011;40968;52.342;5.528;2023-03-25T07:49:25;29.17;;;6.15;;
43160;SDS011;40968;52.342;5.528;2023-03-25T07:51:52;26.70;;;5.03;;
43160;SDS011;40968;52.342;5.528;2023-03-25T07:54:20;27.08;;;5.68;;
43160;SDS011;40968;52.342;5.528;2023-03-25T07:56:48;42.40;;;8.10;;
43160;SDS011;40968;52.342;5.528;2023-03-25T07:59:16;26.48;;;4.95;;
43160;SDS011;40968;52.342;5.528;2023-03-25T08:01:43;30.77;;;5.20;;
43160;SDS011;40968;52.342;5.528;2023-03-25T08:04:10;24.50;;;4.88;;
43160;SDS011;40968;52.342;5.528;2023-03-25T08:06:37;32.13;;;5.25;;
43160;SDS011;40968;52.342;5.528;2023-03-25T08:09:04;28.10;;;4.75;;
43160;SDS011;40968;52.342;5.528;2023-03-25T08:11:33;23.75;;;5.30;;
43160;SDS011;40968;52.342;5.528;2023-03-25T08:13:59;32.90;;;5.95;;
43160;SDS011;40968;52.342;5.528;2023-03-25T08:16:27;34.90;;;4.88;;
43160;SDS011;40968;52.342;5.528;2023-03-25T08:18:53;30.42;;;4.70;;
43160;SDS011;40968;52.342;5.528;2023-03-25T08:21:20;17.77;;;4.43;;
43160;SDS011;40968;52.342;5.528;2023-03-25T08:23:49;21.20;;;4.80;;
43160;SDS011;40968;52.342;5.528;2023-03-25T08:26:18;31.20;;;5.47;;
43160;SDS011;40968;52.342;5.528;2023-03-25T08:28:47;29.05;;;4.75;;
43160;SDS011;40968;52.342;5.528;2023-03-25T08:31:13;42.78;;;5.13;;
43160;SDS011;40968;52.342;5.528;2023-03-25T08:33:40;27.40;;;4.88;;
43160;SDS011;40968;52.342;5.528;2023-03-25T08:36:08;24.05;;;5.50;;
43160;SDS011;40968;52.342;5.528;2023-03-25T08:38:38;36.75;;;5.47;;
43160;SDS011;40968;52.342;5.528;2023-03-25T08:41:06;21.58;;;4.75;;
43160;SDS011;40968;52.342;5.528;2023-03-25T08:43:33;24.27;;;4.80;;
43160;SDS011;40968;52.342;5.528;2023-03-25T08:46:01;24.70;;;4.90;;
43160;SDS011;40968;52.342;5.528;2023-03-25T08:48:28;21.77;;;4.82;;
43160;SDS011;40968;52.342;5.528;2023-03-25T08:50:54;33.40;;;5.95;;
43160;SDS011;40968;52.342;5.528;2023-03-25T08:53:21;36.58;;;5.55;;
43160;SDS011;40968;52.342;5.528;2023-03-25T08:55:49;42.05;;;7.05;;
43160;SDS011;40968;52.342;5.528;2023-03-25T08:58:17;26.52;;;4.90;;
43160;SDS011;40968;52.342;5.528;2023-03-25T09:00:44;24.80;;;5.35;;
43160;SDS011;40968;52.342;5.528;2023-03-25T09:03:12;27.17;;;5.57;;
43160;SDS011;40968;52.342;5.528;2023-03-25T09:05:40;28.95;;;5.03;;
43160;SDS011;40968;52.342;5.528;2023-03-25T09:08:06;23.30;;;5.18;;
43160;SDS011;40968;52.342;5.528;2023-03-25T09:10:34;25.92;;;5.10;;
43160;SDS011;40968;52.342;5.528;2023-03-25T09:13:00;22.38;;;4.93;;
43160;SDS011;40968;52.342;5.528;2023-03-25T09:15:27;32.65;;;5.90;;
43160;SDS011;40968;52.342;5.528;2023-03-25T09:17:54;27.88;;;5.95;;
43160;SDS011;40968;52.342;5.528;2023-03-25T09:20:23;58.78;;;7.55;;
43160;SDS011;40968;52.342;5.528;2023-03-25T09:22:50;33.95;;;7.10;;
43160;SDS011;40968;52.342;5.528;2023-03-25T09:25:16;31.90;;;6.03;;
43160;SDS011;40968;52.342;5.528;2023-03-25T09:27:43;28.58;;;4.93;;
43160;SDS011;40968;52.342;5.528;2023-03-25T09:30:10;45.70;;;6.80;;
43160;SDS011;40968;52.342;5.528;2023-03-25T09:32:38;36.50;;;5.78;;
43160;SDS011;40968;52.342;5.528;2023-03-25T09:35:05;36.05;;;6.15;;
43160;SDS011;40968;52.342;5.528;2023-03-25T09:37:34;27.02;;;5.78;;
43160;SDS011;40968;52.342;5.528;2023-03-25T09:40:01;29.13;;;5.53;;
43160;SDS011;40968;52.342;5.528;2023-03-25T09:42:32;30.20;;;5.25;;
43160;SDS011;40968;52.342;5.528;2023-03-25T09:45:16;29.77;;;5.03;;
43160;SDS011;40968;52.342;5.528;2023-03-25T09:47:51;27.90;;;5.20;;
43160;SDS011;40968;52.342;5.528;2023-03-25T09:50:23;27.75;;;4.80;;
43160;SDS011;40968;52.342;5.528;2023-03-25T09:52:54;22.13;;;6.18;;
43160;SDS011;40968;52.342;5.528;2023-03-25T09:55:26;17.95;;;4.65;;
43160;SDS011;40968;52.342;5.528;2023-03-25T09:57:56;27.90;;;4.80;;
43160;SDS011;40968;52.342;5.528;2023-03-25T10:00:27;23.27;;;5.07;;
43160;SDS011;40968;52.342;5.528;2023-03-25T10:02:57;26.75;;;4.80;;
43160;SDS011;40968;52.342;5.528;2023-03-25T10:08:26;14.60;;;4.18;;
43160;SDS011;40968;52.342;5.528;2023-03-25T10:11:00;39.33;;;5.45;;
43160;SDS011;40968;52.342;5.528;2023-03-25T10:13:34;28.83;;;4.25;;
43160;SDS011;40968;52.342;5.528;2023-03-25T10:16:09;27.73;;;4.90;;
43160;SDS011;40968;52.342;5.528;2023-03-25T10:18:48;21.80;;;5.00;;
43160;SDS011;40968;52.342;5.528;2023-03-25T10:21:24;28.65;;;5.75;;
43160;SDS011;40968;52.342;5.528;2023-03-25T10:24:01;26.60;;;4.68;;
43160;SDS011;40968;52.342;5.528;2023-03-25T10:26:39;32.25;;;5.13;;
43160;SDS011;40968;52.342;5.528;2023-03-25T10:29:11;31.13;;;5.90;;
43160;SDS011;40968;52.342;5.528;2023-03-25T10:31:42;21.45;;;4.57;;
43160;SDS011;40968;52.342;5.528;2023-03-25T10:34:20;26.38;;;4.47;;
43160;SDS011;40968;52.342;5.528;2023-03-25T10:36:54;19.15;;;4.32;;
43160;SDS011;40968;52.342;5.528;2023-03-25T10:39:28;17.13;;;4.00;;
43160;SDS011;40968;52.342;5.528;2023-03-25T10:42:02;26.42;;;4.40;;
43160;SDS011;40968;52.342;5.528;2023-03-25T10:44:38;29.17;;;4.13;;
43160;SDS011;40968;52.342;5.528;2023-03-25T10:47:05;30.13;;;4.53;;
43160;SDS011;40968;52.342;5.528;2023-03-25T10:49:37;19.70;;;4.97;;
43160;SDS011;40968;52.342;5.528;2023-03-25T10:52:06;25.35;;;4.50;;
43160;SDS011;40968;52.342;5.528;2023-03-25T10:54:36;24.73;;;4.18;;
43160;SDS011;40968;52.342;5.528;2023-03-25T10:59:34;24.35;;;4.45;;
43160;SDS011;40968;52.342;5.528;2023-03-25T11:02:11;27.75;;;3.95;;
43160;SDS011;40968;52.342;5.528;2023-03-25T11:04:41;19.02;;;3.80;;
43160;SDS011;40968;52.342;5.528;2023-03-25T11:07:12;21.60;;;5.00;;
43160;SDS011;40968;52.342;5.528;2023-03-25T11:09:45;17.10;;;3.72;;
43160;SDS011;40968;52.342;5.528;2023-03-25T11:12:13;12.05;;;3.03;;
43160;SDS011;40968;52.342;5.528;2023-03-25T11:14:45;18.00;;;3.30;;
43160;SDS011;40968;52.342;5.528;2023-03-25T11:17:20;18.05;;;4.32;;
43160;SDS011;40968;52.342;5.528;2023-03-25T11:19:51;22.90;;;4.23;;
43160;SDS011;40968;52.342;5.528;2023-03-25T11:22:21;17.67;;;3.45;;
43160;SDS011;40968;52.342;5.528;2023-03-25T11:24:51;17.77;;;4.28;;
43160;SDS011;40968;52.342;5.528;2023-03-25T11:27:25;32.45;;;4.30;;
43160;SDS011;40968;52.342;5.528;2023-03-25T11:29:55;23.60;;;4.72;;
43160;SDS011;40968;52.342;5.528;2023-03-25T11:32:30;23.63;;;4.72;;
43160;SDS011;40968;52.342;5.528;2023-03-25T11:35:00;26.02;;;4.25;;
43160;SDS011;40968;52.342;5.528;2023-03-25T11:37:36;16.08;;;3.97;;
43160;SDS011;40968;52.342;5.528;2023-03-25T11:40:13;16.40;;;4.15;;
43160;SDS011;40968;52.342;5.528;2023-03-25T11:42:42;16.20;;;4.25;;
43160;SDS011;40968;52.342;5.528;2023-03-25T11:45:18;16.17;;;4.15;;
43160;SDS011;40968;52.342;5.528;2023-03-25T11:47:46;26.85;;;5.10;;
43160;SDS011;40968;52.342;5.528;2023-03-25T11:50:17;16.05;;;3.90;;
43160;SDS011;40968;52.342;5.528;2023-03-25T11:52:46;20.52;;;3.97;;
43160;SDS011;40968;52.342;5.528;2023-03-25T11:55:18;18.45;;;4.20;;
43160;SDS011;40968;52.342;5.528;2023-03-25T11:57:48;24.85;;;4.03;;
43160;SDS011;40968;52.342;5.528;2023-03-25T12:03:04;17.27;;;4.20;;
43160;SDS011;40968;52.342;5.528;2023-03-25T12:05:32;19.10;;;4.95;;
43160;SDS011;40968;52.342;5.528;2023-03-25T12:08:02;17.98;;;3.30;;
43160;SDS011;40968;52.342;5.528;2023-03-25T12:10:40;21.65;;;4.95;;
43160;SDS011;40968;52.342;5.528;2023-03-25T12:13:15;30.88;;;4.18;;
43160;SDS011;40968;52.342;5.528;2023-03-25T12:15:54;18.48;;;3.40;;
43160;SDS011;40968;52.342;5.528;2023-03-25T12:18:36;25.13;;;3.72;;
43160;SDS011;40968;52.342;5.528;2023-03-25T12:21:15;17.52;;;3.67;;
43160;SDS011;40968;52.342;5.528;2023-03-25T12:23:52;24.17;;;3.58;;
43160;SDS011;40968;52.342;5.528;2023-03-25T12:26:35;15.80;;;3.83;;
43160;SDS011;40968;52.342;5.528;2023-03-25T12:29:15;21.00;;;3.40;;
43160;SDS011;40968;52.342;5.528;2023-03-25T12:31:56;16.42;;;3.60;;
43160;SDS011;40968;52.342;5.528;2023-03-25T12:34:43;22.35;;;3.67;;
43160;SDS011;40968;52.342;5.528;2023-03-25T12:39:59;19.70;;;3.30;;
43160;SDS011;40968;52.342;5.528;2023-03-25T12:42:47;29.23;;;4.13;;
43160;SDS011;40968;52.342;5.528;2023-03-25T12:45:28;15.38;;;3.45;;
43160;SDS011;40968;52.342;5.528;2023-03-25T12:48:06;20.77;;;3.80;;
43160;SDS011;40968;52.342;5.528;2023-03-25T12:50:46;15.25;;;3.17;;
43160;SDS011;40968;52.342;5.528;2023-03-25T12:53:23;31.70;;;3.72;;
43160;SDS011;40968;52.342;5.528;2023-03-25T12:56:04;12.13;;;2.65;;
43160;SDS011;40968;52.342;5.528;2023-03-25T13:01:44;19.52;;;2.72;;
43160;SDS011;40968;52.342;5.528;2023-03-25T13:07:09;10.80;;;2.22;;
43160;SDS011;40968;52.342;5.528;2023-03-25T13:09:47;29.60;;;3.05;;
43160;SDS011;40968;52.342;5.528;2023-03-25T13:12:25;20.70;;;3.13;;
43160;SDS011;40968;52.342;5.528;2023-03-25T13:14:59;11.55;;;2.80;;
43160;SDS011;40968;52.342;5.528;2023-03-25T13:17:33;9.13;;;2.80;;
43160;SDS011;40968;52.342;5.528;2023-03-25T13:20:03;15.10;;;3.17;;
43160;SDS011;40968;52.342;5.528;2023-03-25T13:22:35;9.80;;;2.30;;
43160;SDS011;40968;52.342;5.528;2023-03-25T13:25:09;14.52;;;3.25;;
43160;SDS011;40968;52.342;5.528;2023-03-25T13:27:44;16.95;;;2.35;;
43160;SDS011;40968;52.342;5.528;2023-03-25T13:30:16;8.45;;;2.38;;
43160;SDS011;40968;52.342;5.528;2023-03-25T13:32:51;10.65;;;2.25;;
43160;SDS011;40968;52.342;5.528;2023-03-25T13:35:22;9.23;;;2.30;;
43160;SDS011;40968;52.342;5.528;2023-03-25T13:37:56;9.50;;;1.92;;
43160;SDS011;40968;52.342;5.528;2023-03-25T13:40:27;7.97;;;1.90;;
43160;SDS011;40968;52.342;5.528;2023-03-25T13:43:00;13.68;;;2.10;;
43160;SDS011;40968;52.342;5.528;2023-03-25T13:45:42;14.02;;;2.38;;
43160;SDS011;40968;52.342;5.528;2023-03-25T13:48:13;8.50;;;2.00;;
43160;SDS011;40968;52.342;5.528;2023-03-25T13:50:44;16.42;;;2.47;;
43160;SDS011;40968;52.342;5.528;2023-03-25T13:53:12;9.27;;;2.08;;
43160;SDS011;40968;52.342;5.528;2023-03-25T13:55:44;13.95;;;2.35;;
43160;SDS011;40968;52.342;5.528;2023-03-25T13:58:21;13.80;;;2.33;;
43160;SDS011;40968;52.342;5.528;2023-03-25T14:01:21;5.95;;;2.20;;
43160;SDS011;40968;52.342;5.528;2023-03-25T14:04:11;8.48;;;1.83;;
43160;SDS011;40968;52.342;5.528;2023-03-25T14:07:20;15.90;;;1.85;;
43160;SDS011;40968;52.342;5.528;2023-03-25T14:10:24;8.18;;;2.00;;
43160;SDS011;40968;52.342;5.528;2023-03-25T14:12:55;13.67;;;2.23;;
43160;SDS011;40968;52.342;5.528;2023-03-25T14:15:26;23.48;;;2.75;;
43160;SDS011;40968;52.342;5.528;2023-03-25T14:20:25;16.00;;;2.60;;
43160;SDS011;40968;52.342;5.528;2023-03-25T14:22:55;11.07;;;2.80;;
43160;SDS011;40968;52.342;5.528;2023-03-25T14:25:28;10.43;;;2.42;;
43160;SDS011;40968;52.342;5.528;2023-03-25T14:28:01;8.52;;;1.83;;
43160;SDS011;40968;52.342;5.528;2023-03-25T14:30:29;8.13;;;2.20;;
43160;SDS011;40968;52.342;5.528;2023-03-25T14:32:59;8.68;;;2.05;;
43160;SDS011;40968;52.342;5.528;2023-03-25T14:35:43;8.73;;;1.75;;
43160;SDS011;40968;52.342;5.528;2023-03-25T14:44:17;9.70;;;2.50;;
43160;SDS011;40968;52.342;5.528;2023-03-25T14:46:44;7.10;;;2.38;;
43160;SDS011;40968;52.342;5.528;2023-03-25T14:49:18;13.70;;;2.58;;
43160;SDS011;40968;52.342;5.528;2023-03-25T14:51:48;12.60;;;3.15;;
43160;SDS011;40968;52.342;5.528;2023-03-25T14:54:20;14.73;;;3.20;;
43160;SDS011;40968;52.342;5.528;2023-03-25T14:56:55;21.08;;;3.78;;
43160;SDS011;40968;52.342;5.528;2023-03-25T14:59:28;14.10;;;3.60;;
43160;SDS011;40968;52.342;5.528;2023-03-25T15:02:02;17.60;;;2.85;;
43160;SDS011;40968;52.342;5.528;2023-03-25T15:04:32;29.30;;;3.42;;
43160;SDS011;40968;52.342;5.528;2023-03-25T15:07:02;43.35;;;3.83;;
43160;SDS011;40968;52.342;5.528;2023-03-25T15:09:29;14.18;;;2.58;;
43160;SDS011;40968;52.342;5.528;2023-03-25T15:11:57;7.93;;;2.03;;
43160;SDS011;40968;52.342;5.528;2023-03-25T15:14:28;10.20;;;1.50;;
43160;SDS011;40968;52.342;5.528;2023-03-25T15:17:03;7.05;;;1.02;;
43160;SDS011;40968;52.342;5.528;2023-03-25T15:22:37;5.63;;;1.35;;
43160;SDS011;40968;52.342;5.528;2023-03-25T15:25:08;16.27;;;1.30;;
43160;SDS011;40968;52.342;5.528;2023-03-25T15:27:44;5.05;;;1.08;;
43160;SDS011;40968;52.342;5.528;2023-03-25T15:33:38;10.55;;;1.60;;
43160;SDS011;40968;52.342;5.528;2023-03-25T15:36:22;12.57;;;1.45;;
43160;SDS011;40968;52.342;5.528;2023-03-25T15:39:16;8.82;;;1.60;;
43160;SDS011;40968;52.342;5.528;2023-03-25T15:44:45;5.00;;;1.25;;
43160;SDS011;40968;52.342;5.528;2023-03-25T15:47:27;6.85;;;1.40;;
43160;SDS011;40968;52.342;5.528;2023-03-25T15:50:13;7.40;;;1.70;;